createdAt,value
2022-10-08T00:00:51.615Z,9.45
2022-10-08T00:03:19.602Z,8.85
2022-10-08T00:05:56.062Z,11.57
2022-10-08T00:08:22.587Z,8.43
2022-10-08T00:11:04.264Z,9.38
2022-10-08T00:13:40.846Z,14.25
2022-10-08T00:16:12.651Z,9.40
2022-10-08T00:18:44.020Z,9.55
2022-10-08T00:21:14.920Z,8.27
2022-10-08T00:23:42.276Z,8.85
2022-10-08T00:26:09.625Z,12.88
2022-10-08T00:28:37.754Z,8.48
2022-10-08T00:31:12.931Z,5.22
2022-10-08T00:33:40.001Z,7.07
2022-10-08T00:36:09.848Z,9.77
2022-10-08T00:38:37.156Z,9.23
2022-10-08T00:41:05.716Z,9.27
2022-10-08T00:43:44.091Z,8.20
2022-10-08T00:46:25.549Z,8.55
2022-10-08T00:48:56.999Z,8.13
2022-10-08T00:51:24.859Z,11.15
2022-10-08T00:53:52.487Z,8.45
2022-10-08T00:56:20.331Z,11.75
2022-10-08T00:58:47.719Z,7.20
2022-10-08T01:01:14.191Z,7.65
2022-10-08T01:03:40.778Z,10.52
2022-10-08T01:06:27.732Z,8.13
2022-10-08T01:08:57.538Z,7.18
2022-10-08T01:11:38.970Z,10.35
2022-10-08T01:14:10.858Z,8.73
2022-10-08T01:16:54.167Z,7.18
2022-10-08T01:19:45.321Z,8.15
2022-10-08T01:22:49.671Z,11.75
2022-10-08T01:25:41.846Z,7.47
2022-10-08T01:28:28.423Z,9.43
2022-10-08T01:31:01.310Z,8.77
2022-10-08T01:33:45.789Z,5.20
2022-10-08T01:36:14.847Z,10.95
2022-10-08T01:38:46.251Z,9.80
2022-10-08T01:41:15.872Z,14.25
2022-10-08T01:43:48.899Z,9.10
2022-10-08T01:46:23.876Z,9.82
2022-10-08T01:48:53.863Z,6.75
2022-10-08T01:51:23.855Z,9.18
2022-10-08T01:53:52.129Z,12.88
2022-10-08T01:56:24.605Z,6.93
2022-10-08T01:59:07.887Z,9.27
2022-10-08T02:01:52.719Z,9.95
2022-10-08T02:04:35.772Z,9.75
2022-10-08T02:07:09.426Z,10.20
2022-10-08T02:09:41.854Z,10.38
2022-10-08T02:12:09.572Z,8.38
2022-10-08T02:14:40.243Z,7.18
2022-10-08T02:17:15.568Z,8.05
2022-10-08T02:22:18.529Z,10.30
2022-10-08T02:24:56.140Z,9.00
2022-10-08T02:27:29.101Z,11.75
2022-10-08T02:30:07.994Z,9.38
2022-10-08T02:32:51.062Z,12.95
2022-10-08T02:35:25.297Z,11.55
2022-10-08T02:38:01.228Z,13.02
2022-10-08T02:40:30.561Z,8.25
2022-10-08T02:43:05.125Z,8.63
2022-10-08T02:45:36.300Z,9.27
2022-10-08T02:48:12.032Z,10.00
2022-10-08T02:50:42.958Z,7.32
2022-10-08T02:53:14.464Z,9.95
2022-10-08T02:56:22.335Z,4.82
2022-10-08T02:58:48.783Z,12.13
2022-10-08T03:01:26.668Z,10.93
2022-10-08T03:04:13.434Z,12.52
2022-10-08T03:06:40.154Z,11.20
2022-10-08T03:09:08.511Z,11.68
2022-10-08T03:11:35.403Z,8.00
2022-10-08T03:14:09.086Z,7.65
2022-10-08T03:16:39.188Z,8.18
2022-10-08T03:19:08.431Z,9.13
2022-10-08T03:21:36.237Z,6.22
2022-10-08T03:24:02.904Z,9.75
2022-10-08T03:26:29.343Z,9.13
2022-10-08T03:28:55.711Z,7.40
2022-10-08T03:31:22.254Z,9.50
2022-10-08T03:33:52.726Z,11.25
2022-10-08T03:36:20.810Z,10.88
2022-10-08T03:38:48.208Z,12.05
2022-10-08T03:41:15.313Z,8.88
2022-10-08T03:43:42.129Z,11.63
2022-10-08T03:46:09.643Z,9.45
2022-10-08T03:48:36.315Z,7.72
2022-10-08T03:51:13.914Z,6.85
2022-10-08T03:53:42.608Z,10.00
2022-10-08T03:56:15.250Z,7.03
2022-10-08T03:58:42.085Z,9.95
2022-10-08T04:01:12.803Z,10.43
2022-10-08T04:03:39.447Z,8.38
2022-10-08T04:06:06.270Z,7.82
2022-10-08T04:08:33.648Z,10.52
2022-10-08T04:11:05.342Z,5.05
2022-10-08T04:13:32.493Z,6.53
2022-10-08T04:16:07.534Z,8.13
2022-10-08T04:18:34.994Z,7.70
2022-10-08T04:21:04.891Z,7.13
2022-10-08T04:23:33.772Z,9.50
2022-10-08T04:26:00.648Z,10.38
2022-10-08T04:28:27.983Z,15.25
2022-10-08T04:31:03.471Z,7.65
2022-10-08T04:33:32.007Z,9.50
2022-10-08T04:36:00.307Z,5.40
2022-10-08T04:38:28.029Z,7.50
2022-10-08T04:41:04.652Z,10.15
2022-10-08T04:43:31.294Z,7.65
2022-10-08T04:45:58.069Z,7.82
2022-10-08T04:48:24.543Z,8.40
2022-10-08T04:50:55.926Z,7.32
2022-10-08T04:53:22.901Z,8.05
2022-10-08T04:55:49.286Z,5.30
2022-10-08T04:58:15.729Z,7.55
2022-10-08T05:00:42.146Z,9.73
2022-10-08T05:03:08.628Z,8.95
2022-10-08T05:05:39.599Z,6.05
2022-10-08T05:08:06.247Z,7.10
2022-10-08T05:10:32.712Z,7.25
2022-10-08T05:12:59.129Z,6.57
2022-10-08T05:15:25.508Z,6.03
2022-10-08T05:17:51.903Z,10.13
2022-10-08T05:20:18.313Z,8.02
2022-10-08T05:22:45.178Z,7.38
2022-10-08T05:25:11.807Z,6.18
2022-10-08T05:27:38.256Z,5.65
2022-10-08T05:30:05.285Z,4.75
2022-10-08T05:32:31.721Z,6.72
2022-10-08T05:34:58.100Z,5.05
2022-10-08T05:37:24.757Z,7.82
2022-10-08T05:39:51.145Z,7.82
2022-10-08T05:42:17.517Z,5.70
2022-10-08T05:44:45.593Z,6.55
2022-10-08T05:47:12.168Z,6.72
2022-10-08T05:49:38.574Z,8.48
2022-10-08T05:52:05.007Z,6.25
2022-10-08T05:54:31.420Z,7.72
2022-10-08T05:56:57.795Z,6.50
2022-10-08T05:59:24.557Z,6.72
2022-10-08T06:01:51.455Z,7.28
2022-10-08T06:04:18.806Z,6.72
2022-10-08T06:06:45.280Z,7.15
2022-10-08T06:09:14.788Z,8.52
2022-10-08T06:11:42.419Z,6.50
2022-10-08T06:14:11.495Z,8.10
2022-10-08T06:16:38.623Z,8.40
2022-10-08T06:19:07.023Z,8.90
2022-10-08T06:21:34.760Z,5.35
2022-10-08T06:24:04.602Z,9.52
2022-10-08T06:26:35.966Z,8.57
2022-10-08T06:29:05.510Z,6.55
2022-10-08T06:31:32.689Z,8.80
2022-10-08T06:33:59.292Z,11.13
2022-10-08T06:36:27.664Z,11.48
2022-10-08T06:38:59.634Z,9.20
2022-10-08T06:41:27.231Z,9.80
2022-10-08T06:43:55.605Z,8.27
2022-10-08T06:46:22.675Z,9.00
2022-10-08T06:48:49.193Z,11.68
2022-10-08T06:51:18.114Z,11.23
2022-10-08T06:53:47.683Z,11.82
2022-10-08T06:56:17.914Z,10.32
2022-10-08T06:58:45.030Z,13.75
2022-10-08T07:01:20.467Z,9.00
2022-10-08T07:03:58.140Z,8.05
2022-10-08T07:06:25.611Z,7.72
2022-10-08T07:08:54.151Z,9.73
2022-10-08T07:11:21.668Z,11.48
2022-10-08T07:13:48.152Z,11.63
2022-10-08T07:16:20.809Z,10.63
2022-10-08T07:18:49.707Z,11.15
2022-10-08T07:21:17.973Z,12.45
2022-10-08T07:23:45.256Z,11.07
2022-10-08T07:26:14.689Z,10.10
2022-10-08T07:28:49.733Z,15.30
2022-10-08T07:31:19.463Z,19.63
2022-10-08T07:33:45.974Z,11.10
2022-10-08T07:36:18.101Z,11.70
2022-10-08T07:38:44.563Z,12.80
2022-10-08T07:41:12.291Z,13.77
2022-10-08T07:43:42.825Z,14.02
2022-10-08T07:46:11.389Z,11.68
2022-10-08T07:48:39.327Z,14.80
2022-10-08T07:51:11.001Z,13.35
2022-10-08T07:53:38.397Z,14.73
2022-10-08T07:56:06.394Z,13.75
2022-10-08T07:58:33.207Z,10.82
2022-10-08T08:01:01.285Z,13.70
2022-10-08T08:03:27.730Z,11.82
2022-10-08T08:05:54.417Z,11.30
2022-10-08T08:08:24.661Z,15.90
2022-10-08T08:11:02.413Z,14.90
2022-10-08T08:13:34.422Z,12.40
2022-10-08T08:16:06.813Z,11.50
2022-10-08T08:18:38.373Z,15.52
2022-10-08T08:21:10.970Z,13.35
2022-10-08T08:23:45.334Z,13.68
2022-10-08T08:26:14.515Z,13.77
2022-10-08T08:28:41.277Z,10.85
2022-10-08T08:31:25.744Z,10.23
2022-10-08T08:33:56.590Z,13.65
2022-10-08T08:36:29.200Z,13.25
2022-10-08T08:38:56.928Z,14.23
2022-10-08T08:41:29.351Z,11.90
2022-10-08T08:44:36.102Z,12.73
2022-10-08T08:47:23.546Z,12.00
2022-10-08T08:50:16.048Z,11.10
2022-10-08T08:52:43.514Z,11.40
2022-10-08T08:55:15.345Z,12.25
2022-10-08T08:57:55.404Z,13.38
2022-10-08T09:00:24.310Z,13.23
2022-10-08T09:05:32.992Z,15.65
2022-10-08T09:08:22.948Z,11.43
2022-10-08T09:10:58.507Z,13.55
2022-10-08T09:13:30.189Z,12.60
2022-10-08T09:15:57.142Z,10.77
2022-10-08T09:18:23.910Z,10.63
2022-10-08T09:20:50.352Z,11.45
2022-10-08T09:23:25.001Z,9.43
2022-10-08T09:26:02.188Z,8.30
2022-10-08T09:28:46.382Z,12.65
2022-10-08T09:31:21.033Z,11.43
2022-10-08T09:33:55.832Z,11.85
2022-10-08T09:36:43.912Z,12.68
2022-10-08T09:39:19.473Z,8.52
2022-10-08T09:41:48.481Z,7.05
2022-10-08T09:44:21.048Z,7.07
2022-10-08T09:46:48.393Z,10.48
2022-10-08T09:49:33.585Z,11.23
2022-10-08T09:52:16.748Z,12.23
2022-10-08T09:54:48.796Z,10.07
2022-10-08T09:57:18.553Z,8.90
2022-10-08T09:59:59.714Z,8.50
2022-10-08T10:02:32.189Z,7.95
2022-10-08T10:05:00.379Z,6.10
2022-10-08T10:07:42.886Z,7.10
2022-10-08T10:10:15.994Z,7.25
2022-10-08T10:12:46.030Z,9.95
2022-10-08T10:15:18.511Z,9.65
2022-10-08T10:17:54.075Z,8.60
2022-10-08T10:20:26.554Z,6.55
2022-10-08T10:22:59.641Z,8.35
2022-10-08T10:25:43.995Z,7.55
2022-10-08T10:28:41.726Z,6.97
2022-10-08T10:31:13.872Z,7.68
2022-10-08T10:33:51.911Z,5.68
2022-10-08T10:36:20.772Z,9.20
2022-10-08T10:38:53.819Z,7.05
2022-10-08T10:41:33.056Z,10.52
2022-10-08T10:44:14.238Z,6.32
2022-10-08T10:46:45.984Z,6.43
2022-10-08T10:49:17.548Z,6.25
2022-10-08T10:51:49.793Z,6.75
2022-10-08T10:54:25.228Z,8.55
2022-10-08T10:56:59.564Z,10.07
2022-10-08T10:59:50.773Z,5.75
2022-10-08T11:02:30.919Z,4.88
2022-10-08T11:05:25.476Z,6.78
2022-10-08T11:08:30.276Z,5.22
2022-10-08T11:11:05.448Z,4.25
2022-10-08T11:13:58.030Z,5.65
2022-10-08T11:16:53.929Z,4.85
2022-10-08T11:19:44.496Z,4.20
2022-10-08T11:22:50.834Z,7.05
2022-10-08T11:25:55.676Z,9.63
2022-10-08T11:28:34.015Z,6.13
2022-10-08T11:31:26.804Z,7.25
2022-10-08T11:33:56.148Z,4.45
2022-10-08T11:36:46.065Z,3.88
2022-10-08T11:39:44.718Z,3.63
2022-10-08T11:42:24.579Z,5.43
2022-10-08T11:44:51.285Z,5.28
2022-10-08T11:47:40.142Z,5.07
2022-10-08T11:50:23.046Z,4.28
2022-10-08T11:52:50.538Z,2.53
2022-10-08T11:55:27.519Z,7.00
2022-10-08T11:58:07.748Z,5.30
2022-10-08T12:03:25.267Z,7.97
2022-10-08T12:05:55.807Z,5.55
2022-10-08T12:08:54.574Z,5.80
2022-10-08T12:11:30.107Z,5.80
2022-10-08T12:14:26.899Z,5.32
2022-10-08T12:17:13.916Z,6.50
2022-10-08T12:19:42.203Z,5.07
2022-10-08T12:22:14.847Z,5.15
2022-10-08T12:24:43.809Z,4.78
2022-10-08T12:27:18.426Z,5.15
2022-10-08T12:30:11.642Z,4.72
2022-10-08T12:32:44.495Z,6.68
2022-10-08T12:35:31.374Z,7.88
2022-10-08T12:38:16.279Z,5.57
2022-10-08T12:41:01.588Z,6.40
2022-10-08T12:43:49.435Z,7.43
2022-10-08T12:46:50.506Z,7.78
2022-10-08T12:49:35.007Z,7.40
2022-10-08T12:52:07.902Z,5.82
2022-10-08T12:54:34.684Z,4.85
2022-10-08T12:57:08.935Z,6.43
2022-10-08T12:59:36.705Z,4.00
2022-10-08T13:02:03.660Z,4.55
2022-10-08T13:04:33.842Z,5.45
2022-10-08T13:07:00.385Z,5.57
2022-10-08T13:09:33.101Z,5.35
2022-10-08T13:12:03.919Z,5.15
2022-10-08T13:14:32.224Z,5.07
2022-10-08T13:16:59.097Z,6.65
2022-10-08T13:19:35.756Z,4.53
2022-10-08T13:22:30.750Z,3.55
2022-10-08T13:24:57.328Z,5.63
2022-10-08T13:27:28.316Z,6.53
2022-10-08T13:29:56.289Z,7.85
2022-10-08T13:32:26.023Z,4.57
2022-10-08T13:34:57.248Z,7.20
2022-10-08T13:37:26.773Z,3.70
2022-10-08T13:39:54.877Z,3.45
2022-10-08T13:42:24.585Z,6.20
2022-10-08T13:44:51.691Z,7.13
2022-10-08T13:47:20.909Z,7.30
2022-10-08T13:49:48.451Z,4.63
2022-10-08T13:52:25.208Z,3.42
2022-10-08T13:54:56.804Z,4.68
2022-10-08T13:57:23.307Z,5.43
2022-10-08T13:59:49.894Z,4.60
2022-10-08T14:02:16.612Z,6.53
2022-10-08T14:04:43.440Z,5.53
2022-10-08T14:07:31.463Z,7.25
2022-10-08T14:10:00.317Z,6.32
2022-10-08T14:12:32.128Z,6.25
2022-10-08T14:15:00.074Z,4.65
2022-10-08T14:17:26.918Z,5.25
2022-10-08T14:19:55.442Z,5.35
2022-10-08T14:22:22.512Z,6.35
2022-10-08T14:24:49.184Z,5.28
2022-10-08T14:27:15.877Z,6.72
2022-10-08T14:29:42.362Z,7.78
2022-10-08T14:32:11.484Z,6.57
2022-10-08T14:34:38.129Z,5.40
2022-10-08T14:37:05.765Z,6.32
2022-10-08T14:39:32.422Z,6.28
2022-10-08T14:41:59.000Z,3.50
2022-10-08T14:44:25.559Z,7.65
2022-10-08T14:46:52.931Z,7.55
2022-10-08T14:49:20.608Z,7.85
2022-10-08T14:51:47.681Z,7.32
2022-10-08T14:54:14.356Z,5.75
2022-10-08T14:56:43.611Z,6.35
2022-10-08T14:59:10.947Z,5.30
2022-10-08T15:01:37.911Z,9.50
2022-10-08T15:04:05.465Z,8.43
2022-10-08T15:06:33.269Z,8.95
2022-10-08T15:09:00.131Z,6.40
2022-10-08T15:11:26.718Z,5.95
2022-10-08T15:13:53.903Z,5.80
2022-10-08T15:16:20.564Z,7.70
2022-10-08T15:18:47.589Z,10.70
2022-10-08T15:21:14.609Z,10.82
2022-10-08T15:23:41.100Z,6.72
2022-10-08T15:26:10.708Z,4.72
2022-10-08T15:28:38.450Z,8.80
2022-10-08T15:31:08.823Z,8.13
2022-10-08T15:33:43.657Z,6.32
2022-10-08T15:36:17.999Z,5.78
2022-10-08T15:41:11.608Z,4.60
2022-10-08T15:43:38.003Z,6.53
2022-10-08T15:46:12.161Z,4.38
2022-10-08T15:48:38.977Z,5.20
2022-10-08T15:51:06.428Z,5.68
2022-10-08T15:53:37.828Z,4.43
2022-10-08T15:56:05.806Z,4.45
2022-10-08T15:58:50.375Z,7.47
2022-10-08T16:01:20.547Z,10.30
2022-10-08T16:03:48.817Z,5.15
2022-10-08T16:06:18.398Z,5.35
2022-10-08T16:08:45.177Z,5.60
2022-10-08T16:11:17.668Z,5.40
2022-10-08T16:13:50.079Z,6.60
2022-10-08T16:16:19.556Z,5.07
2022-10-08T16:18:50.982Z,4.05
2022-10-08T16:21:17.714Z,5.00
2022-10-08T16:23:44.584Z,6.07
2022-10-08T16:26:13.802Z,4.55
2022-10-08T16:28:41.085Z,5.32
2022-10-08T16:31:08.554Z,4.72
2022-10-08T16:33:35.187Z,7.47
2022-10-08T16:36:03.797Z,3.08
2022-10-08T16:38:30.429Z,7.50
2022-10-08T16:41:11.069Z,9.02
2022-10-08T16:43:37.633Z,5.20
2022-10-08T16:46:04.255Z,4.57
2022-10-08T16:48:30.856Z,4.63
2022-10-08T16:50:57.268Z,4.70
2022-10-08T16:53:23.783Z,3.95
2022-10-08T16:55:50.210Z,2.85
2022-10-08T16:58:16.624Z,2.80
2022-10-08T17:00:43.001Z,6.05
2022-10-08T17:03:09.420Z,4.47
2022-10-08T17:05:41.680Z,6.60
2022-10-08T17:08:08.398Z,3.47
2022-10-08T17:10:35.015Z,4.45
2022-10-08T17:13:01.649Z,6.85
2022-10-08T17:15:28.242Z,6.53
2022-10-08T17:17:55.615Z,5.63
2022-10-08T17:20:22.430Z,5.65
2022-10-08T17:22:51.026Z,6.82
2022-10-08T17:25:17.776Z,6.22
2022-10-08T17:27:44.292Z,3.28
2022-10-08T17:30:12.232Z,5.70
2022-10-08T17:32:38.890Z,3.63
2022-10-08T17:35:08.887Z,6.57
2022-10-08T17:37:35.396Z,3.95
2022-10-08T17:40:02.003Z,3.90
2022-10-08T17:42:28.512Z,7.22
2022-10-08T17:45:15.671Z,6.07
2022-10-08T17:47:42.140Z,5.10
2022-10-08T17:50:08.890Z,4.97
2022-10-08T17:52:35.556Z,4.18
2022-10-08T17:55:02.276Z,5.13
2022-10-08T17:57:28.869Z,6.82
2022-10-08T17:59:55.570Z,9.02
2022-10-08T18:02:22.584Z,7.80
2022-10-08T18:04:49.111Z,6.43
2022-10-08T18:07:15.811Z,9.02
2022-10-08T18:09:42.290Z,8.80
2022-10-08T18:12:08.803Z,5.28
2022-10-08T18:14:35.286Z,9.05
2022-10-08T18:17:01.716Z,6.68
2022-10-08T18:19:28.167Z,4.05
2022-10-08T18:21:54.615Z,8.02
2022-10-08T18:24:21.270Z,6.78
2022-10-08T18:26:47.862Z,5.18
2022-10-08T18:29:15.382Z,8.40
2022-10-08T18:31:43.953Z,5.90
2022-10-08T18:34:15.812Z,4.78
2022-10-08T18:36:42.644Z,4.47
2022-10-08T18:39:18.222Z,2.85
2022-10-08T18:41:46.845Z,8.60
2022-10-08T18:44:19.682Z,7.32
2022-10-08T18:46:47.457Z,7.15
2022-10-08T18:49:17.052Z,8.02
2022-10-08T18:51:43.819Z,6.88
2022-10-08T18:54:11.832Z,6.22
2022-10-08T18:56:39.733Z,6.75
2022-10-08T18:59:08.927Z,5.45
2022-10-08T19:01:38.328Z,5.07
2022-10-08T19:04:08.170Z,6.53
2022-10-08T19:06:37.401Z,9.20
2022-10-08T19:09:05.964Z,5.70
2022-10-08T19:11:40.611Z,8.75
2022-10-08T19:14:12.662Z,6.65
2022-10-08T19:19:18.785Z,9.13
2022-10-08T19:21:45.792Z,8.68
2022-10-08T19:24:17.625Z,6.35
2022-10-08T19:26:44.912Z,4.32
2022-10-08T19:29:27.978Z,5.78
2022-10-08T19:31:55.041Z,8.32
2022-10-08T19:34:24.649Z,6.00
2022-10-08T19:36:51.878Z,5.40
2022-10-08T19:39:22.028Z,8.23
2022-10-08T19:41:49.604Z,6.95
2022-10-08T19:44:17.249Z,6.93
2022-10-08T19:46:44.368Z,7.40
2022-10-08T19:49:11.245Z,8.00
2022-10-08T19:51:38.750Z,8.82
2022-10-08T19:54:05.427Z,10.32
2022-10-08T19:56:31.962Z,4.72
2022-10-08T19:58:58.668Z,7.93
2022-10-08T20:01:27.888Z,5.78
2022-10-08T20:03:56.238Z,12.68
2022-10-08T20:06:25.156Z,7.55
2022-10-08T20:08:57.801Z,9.10
2022-10-08T20:11:25.738Z,9.70
2022-10-08T20:13:53.581Z,5.13
2022-10-08T20:16:26.456Z,7.78
2022-10-08T20:18:59.720Z,5.47
2022-10-08T20:21:30.828Z,6.88
2022-10-08T20:23:57.575Z,8.40
2022-10-08T20:26:26.848Z,7.65
2022-10-08T20:28:58.101Z,8.95
2022-10-08T20:31:27.603Z,10.73
2022-10-08T20:34:06.091Z,7.50
2022-10-08T20:36:33.491Z,5.40
2022-10-08T20:39:00.582Z,5.70
2022-10-08T20:41:30.926Z,7.82
2022-10-08T20:44:02.867Z,6.50
2022-10-08T20:46:31.547Z,9.43
2022-10-08T20:48:58.504Z,6.35
2022-10-08T20:51:26.974Z,8.02
2022-10-08T20:53:59.496Z,8.65
2022-10-08T20:56:27.402Z,8.40
2022-10-08T20:58:54.481Z,8.77
2022-10-08T21:01:29.997Z,8.98
2022-10-08T21:03:57.276Z,7.05
2022-10-08T21:06:26.569Z,9.60
2022-10-08T21:11:22.594Z,10.43
2022-10-08T21:13:49.802Z,7.47
2022-10-08T21:16:22.130Z,9.07
2022-10-08T21:18:50.643Z,5.70
2022-10-08T21:21:18.038Z,7.60
2022-10-08T21:23:45.058Z,8.98
2022-10-08T21:26:12.895Z,7.82
2022-10-08T21:28:40.663Z,8.15
2022-10-08T21:31:08.458Z,8.15
2022-10-08T21:33:36.543Z,8.68
2022-10-08T21:36:04.739Z,9.10
2022-10-08T21:38:31.901Z,7.63
2022-10-08T21:41:01.280Z,6.50
2022-10-08T21:43:31.336Z,11.18
2022-10-08T21:46:00.867Z,7.22
2022-10-08T21:48:29.288Z,7.15
2022-10-08T21:51:10.563Z,7.05
2022-10-08T21:53:39.196Z,9.27
2022-10-08T21:56:07.869Z,7.65
2022-10-08T21:58:54.693Z,10.57
2022-10-08T22:01:25.799Z,7.65
2022-10-08T22:04:03.414Z,9.77
2022-10-08T22:06:31.696Z,13.52
2022-10-08T22:08:59.062Z,8.77
2022-10-08T22:11:25.713Z,8.35
2022-10-08T22:13:52.592Z,10.32
2022-10-08T22:16:20.419Z,6.40
2022-10-08T22:18:47.436Z,8.15
2022-10-08T22:21:19.288Z,6.43
2022-10-08T22:23:46.654Z,9.57
2022-10-08T22:26:33.709Z,6.68
2022-10-08T22:29:00.371Z,7.65
2022-10-08T22:31:28.057Z,7.50
2022-10-08T22:33:54.970Z,9.48
2022-10-08T22:36:24.233Z,7.75
2022-10-08T22:41:23.231Z,11.88
2022-10-08T22:43:50.077Z,8.10
2022-10-08T22:46:19.440Z,7.75
2022-10-08T22:48:46.728Z,9.88
2022-10-08T22:51:18.910Z,8.55
2022-10-08T22:53:46.574Z,6.95
2022-10-08T22:56:22.698Z,8.07
2022-10-08T22:58:49.652Z,9.02
2022-10-08T23:01:19.560Z,7.97
2022-10-08T23:03:46.915Z,7.13
2022-10-08T23:06:19.276Z,12.50
2022-10-08T23:08:47.434Z,5.63
2022-10-08T23:11:15.386Z,10.75
2022-10-08T23:13:45.417Z,9.85
2022-10-08T23:16:13.943Z,6.00
2022-10-08T23:18:43.605Z,6.95
2022-10-08T23:21:13.789Z,7.20
2022-10-08T23:23:40.760Z,7.28
2022-10-08T23:26:07.963Z,7.22
2022-10-08T23:28:36.942Z,6.60
2022-10-08T23:31:14.835Z,6.57
2022-10-08T23:33:44.483Z,9.60
2022-10-08T23:36:20.358Z,6.85
2022-10-08T23:38:46.985Z,8.85
2022-10-08T23:41:13.871Z,7.18
2022-10-08T23:43:46.075Z,7.43
2022-10-08T23:46:14.633Z,6.43
2022-10-08T23:48:41.852Z,7.45
2022-10-08T23:51:09.876Z,6.53
2022-10-08T23:53:37.311Z,7.72
2022-10-08T23:56:05.029Z,8.55
2022-10-08T23:58:31.827Z,7.20
